createdAt,value
2019-02-12T00:00:49.753Z,0.80
2019-02-12T00:03:33.111Z,0.70
2019-02-12T00:06:15.497Z,1.07
2019-02-12T00:08:58.153Z,0.90
2019-02-12T00:11:40.954Z,0.80
2019-02-12T00:14:24.845Z,0.85
2019-02-12T00:17:05.477Z,0.78
2019-02-12T00:19:55.121Z,0.90
2019-02-12T00:22:36.844Z,0.98
2019-02-12T00:25:18.652Z,0.90
2019-02-12T00:28:00.580Z,0.67
2019-02-12T00:30:42.344Z,0.90
2019-02-12T00:33:23.009Z,0.80
2019-02-12T00:36:12.548Z,0.95
2019-02-12T00:38:55.546Z,0.90
2019-02-12T00:41:38.260Z,0.70
2019-02-12T00:44:20.509Z,0.80
2019-02-12T00:47:03.084Z,1.50
2019-02-12T00:49:45.886Z,0.60
2019-02-12T00:52:27.627Z,1.00
2019-02-12T00:55:10.268Z,0.90
2019-02-12T00:57:50.612Z,0.82
2019-02-12T01:00:39.982Z,0.80
2019-02-12T01:03:22.121Z,0.95
2019-02-12T01:06:05.080Z,0.60
2019-02-12T01:08:45.638Z,0.85
2019-02-12T01:11:34.940Z,0.65
2019-02-12T01:14:17.413Z,0.60
2019-02-12T01:16:59.892Z,0.77
2019-02-12T01:19:42.577Z,1.45
2019-02-12T01:22:25.156Z,0.75
2019-02-12T01:25:07.408Z,0.80
2019-02-12T01:27:49.898Z,1.05
2019-02-12T01:30:32.676Z,0.80
2019-02-12T01:33:15.347Z,0.72
2019-02-12T01:35:57.277Z,0.80
2019-02-12T01:38:39.702Z,0.60
2019-02-12T01:41:21.386Z,1.00
2019-02-12T01:44:03.197Z,0.80
2019-02-12T01:46:45.208Z,3.23
2019-02-12T01:49:28.098Z,0.68
2019-02-12T01:52:09.991Z,0.95
2019-02-12T01:54:51.732Z,2.03
2019-02-12T01:57:34.177Z,1.05
2019-02-12T02:00:16.852Z,1.20
2019-02-12T02:02:58.529Z,0.60
2019-02-12T02:05:40.952Z,0.80
2019-02-12T02:08:22.596Z,0.70
2019-02-12T02:11:05.578Z,0.70
2019-02-12T02:13:47.724Z,1.15
2019-02-12T02:16:30.485Z,1.25
2019-02-12T02:19:13.081Z,1.50
2019-02-12T02:21:55.041Z,1.07
2019-02-12T02:24:37.752Z,0.60
2019-02-12T02:27:20.086Z,0.90
2019-02-12T02:30:02.720Z,0.87
2019-02-12T02:32:44.785Z,0.60
2019-02-12T02:35:28.466Z,0.80
2019-02-12T02:38:10.609Z,0.70
2019-02-12T02:40:53.133Z,1.10
2019-02-12T02:43:35.717Z,0.70
2019-02-12T02:46:18.501Z,1.65
2019-02-12T02:49:00.460Z,0.90
2019-02-12T02:51:42.748Z,0.90
2019-02-12T02:54:25.450Z,1.85
2019-02-12T02:57:07.718Z,1.20
2019-02-12T02:59:50.882Z,0.73
2019-02-12T03:02:34.706Z,0.80
2019-02-12T03:05:17.120Z,1.12
2019-02-12T03:07:59.872Z,1.05
2019-02-12T03:10:42.241Z,0.88
2019-02-12T03:13:24.623Z,1.20
2019-02-12T03:16:06.917Z,0.60
2019-02-12T03:18:49.579Z,1.00
2019-02-12T03:21:31.285Z,1.05
2019-02-12T03:24:13.222Z,0.80
2019-02-12T03:26:54.948Z,0.67
2019-02-12T03:29:37.446Z,0.60
2019-02-12T03:32:20.029Z,0.75
2019-02-12T03:35:02.885Z,0.65
2019-02-12T03:37:45.011Z,1.10
2019-02-12T03:40:27.770Z,0.90
2019-02-12T03:43:09.625Z,0.62
2019-02-12T03:45:52.178Z,2.70
2019-02-12T03:48:34.853Z,0.80
2019-02-12T03:51:16.736Z,0.70
2019-02-12T03:53:59.548Z,0.70
2019-02-12T03:56:42.134Z,0.70
2019-02-12T03:59:24.094Z,0.80
2019-02-12T04:02:06.376Z,1.00
2019-02-12T04:04:48.147Z,0.47
2019-02-12T04:07:30.528Z,1.07
2019-02-12T04:10:12.722Z,1.57
2019-02-12T04:12:54.882Z,0.50
2019-02-12T04:15:38.025Z,0.70
2019-02-12T04:18:19.769Z,0.68
2019-02-12T04:21:02.617Z,0.50
2019-02-12T04:23:45.186Z,0.50
2019-02-12T04:26:27.056Z,0.50
2019-02-12T04:29:09.008Z,1.00
2019-02-12T04:31:51.711Z,0.63
2019-02-12T04:34:33.597Z,0.60
2019-02-12T04:37:16.256Z,0.80
2019-02-12T04:39:58.333Z,1.52
2019-02-12T04:42:41.096Z,0.80
2019-02-12T04:45:23.565Z,0.70
2019-02-12T04:48:06.297Z,0.62
2019-02-12T04:50:49.579Z,1.20
2019-02-12T04:53:31.323Z,0.62
2019-02-12T04:56:13.853Z,0.60
2019-02-12T04:58:55.989Z,0.55
2019-02-12T05:01:38.558Z,0.68
2019-02-12T05:04:20.373Z,0.60
2019-02-12T05:07:02.876Z,1.00
2019-02-12T05:09:44.300Z,0.63
2019-02-12T05:12:33.617Z,0.68
2019-02-12T05:15:15.781Z,1.35
2019-02-12T05:17:58.640Z,0.73
2019-02-12T05:20:40.737Z,0.90
2019-02-12T05:23:22.954Z,0.93
2019-02-12T05:26:04.658Z,1.05
2019-02-12T05:28:47.413Z,0.60
2019-02-12T05:31:30.213Z,0.98
2019-02-12T05:34:11.974Z,0.90
2019-02-12T05:36:53.923Z,0.65
2019-02-12T05:39:37.228Z,1.00
2019-02-12T05:42:19.743Z,0.80
2019-02-12T05:45:01.806Z,0.70
2019-02-12T05:47:44.106Z,0.85
2019-02-12T05:50:26.112Z,0.60
2019-02-12T05:53:08.933Z,0.70
2019-02-12T05:55:51.365Z,0.65
2019-02-12T05:58:34.238Z,0.93
2019-02-12T06:01:18.148Z,0.95
2019-02-12T06:03:59.939Z,0.75
2019-02-12T06:06:42.409Z,0.63
2019-02-12T06:09:24.725Z,1.12
2019-02-12T06:12:06.929Z,0.85
2019-02-12T06:14:49.168Z,1.12
2019-02-12T06:17:32.341Z,0.62
2019-02-12T06:20:15.072Z,1.35
2019-02-12T06:23:03.334Z,0.95
2019-02-12T06:25:41.648Z,0.70
2019-02-12T06:28:24.110Z,0.83
2019-02-12T06:31:06.208Z,0.90
2019-02-12T06:33:48.280Z,1.20
2019-02-12T06:36:30.675Z,0.90
2019-02-12T06:39:12.676Z,0.80
2019-02-12T06:41:54.744Z,1.05
2019-02-12T06:44:37.348Z,0.90
2019-02-12T06:47:19.792Z,0.70
2019-02-12T06:50:02.461Z,1.50
2019-02-12T06:52:44.176Z,0.90
2019-02-12T06:55:26.449Z,0.70
2019-02-12T06:58:08.909Z,0.50
2019-02-12T07:00:50.972Z,0.65
2019-02-12T07:03:32.956Z,1.25
2019-02-12T07:06:15.467Z,0.80
2019-02-12T07:08:57.772Z,0.57
2019-02-12T07:11:39.569Z,0.60
2019-02-12T07:14:22.137Z,0.60
2019-02-12T07:17:05.492Z,1.10
2019-02-12T07:19:47.560Z,0.60
2019-02-12T07:22:30.485Z,0.90
2019-02-12T07:25:12.541Z,0.80
2019-02-12T07:27:55.153Z,0.57
2019-02-12T07:30:37.197Z,1.17
2019-02-12T07:33:19.824Z,1.70
2019-02-12T07:36:02.146Z,0.73
2019-02-12T07:38:44.673Z,0.70
2019-02-12T07:41:26.972Z,0.62
2019-02-12T07:44:09.265Z,1.20
2019-02-12T07:46:51.616Z,3.23
2019-02-12T07:49:34.040Z,0.93
2019-02-12T07:52:15.793Z,0.93
2019-02-12T07:54:57.957Z,0.63
2019-02-12T07:57:41.588Z,0.70
2019-02-12T08:00:24.168Z,1.10
2019-02-12T08:03:05.985Z,1.53
2019-02-12T08:05:47.696Z,1.07
2019-02-12T08:08:29.366Z,0.73
2019-02-12T08:11:11.081Z,1.20
2019-02-12T08:13:52.822Z,0.70
2019-02-12T08:16:34.553Z,0.57
2019-02-12T08:19:16.577Z,0.70
2019-02-12T08:21:59.062Z,0.80
2019-02-12T08:24:41.421Z,0.70
2019-02-12T08:27:23.187Z,0.80
2019-02-12T08:30:24.184Z,0.60
2019-02-12T08:33:32.980Z,0.93
2019-02-12T08:36:38.754Z,0.70
2019-02-12T08:40:06.537Z,1.00
2019-02-12T08:42:49.187Z,0.60
2019-02-12T08:45:31.063Z,0.80
2019-02-12T08:48:13.003Z,0.80
2019-02-12T08:50:55.760Z,0.80
2019-02-12T08:53:38.160Z,0.60
2019-02-12T08:56:20.156Z,1.47
2019-02-12T08:59:02.150Z,1.00
2019-02-12T09:02:11.194Z,0.97
2019-02-12T09:05:19.765Z,0.90
2019-02-12T09:08:02.401Z,0.80
2019-02-12T09:10:46.073Z,0.75
2019-02-12T09:13:28.380Z,0.80
2019-02-12T09:16:10.127Z,2.90
2019-02-12T09:18:52.186Z,0.60
2019-02-12T09:21:34.760Z,0.80
2019-02-12T09:24:17.020Z,0.83
2019-02-12T09:26:59.516Z,0.60
2019-02-12T09:29:41.522Z,0.70
2019-02-12T09:32:23.937Z,0.90
2019-02-12T09:35:06.440Z,0.60
2019-02-12T09:37:48.669Z,0.57
2019-02-12T09:40:31.157Z,0.80
2019-02-12T09:43:13.669Z,1.00
2019-02-12T09:45:55.559Z,0.97
2019-02-12T09:48:37.825Z,0.70
2019-02-12T09:51:19.672Z,0.80
2019-02-12T09:54:08.615Z,0.87
2019-02-12T09:56:46.408Z,0.93
2019-02-12T09:59:28.713Z,0.60
2019-02-12T10:02:10.855Z,0.60
2019-02-12T10:04:53.157Z,0.50
2019-02-12T10:07:36.018Z,0.60
2019-02-12T10:10:17.784Z,0.60
2019-02-12T10:13:00.613Z,0.50
2019-02-12T10:15:43.321Z,0.70
2019-02-12T10:18:25.109Z,0.60
2019-02-12T10:24:57.049Z,0.60
2019-02-12T10:27:51.920Z,0.80
2019-02-12T10:30:29.968Z,0.70
2019-02-12T10:33:00.237Z,0.50
2019-02-12T10:35:30.604Z,0.50
2019-02-12T10:38:01.609Z,0.82
2019-02-12T10:40:31.906Z,1.10
2019-02-12T10:43:01.919Z,0.70
2019-02-12T10:45:32.000Z,0.90
2019-02-12T10:48:02.013Z,1.13
2019-02-12T10:50:32.380Z,0.50
2019-02-12T10:53:14.493Z,1.60
2019-02-12T10:55:56.857Z,0.70
2019-02-12T10:58:39.708Z,0.83
2019-02-12T11:01:22.473Z,0.90
2019-02-12T11:04:04.853Z,0.80
2019-02-12T11:06:47.213Z,0.60
2019-02-12T11:09:29.746Z,0.60
2019-02-12T11:12:12.008Z,0.60
2019-02-12T11:14:54.589Z,0.40
2019-02-12T11:17:37.174Z,0.63
2019-02-12T11:20:19.089Z,0.60
2019-02-12T11:23:01.871Z,0.50
2019-02-12T11:25:43.850Z,0.40
2019-02-12T11:28:25.589Z,0.43
2019-02-12T11:31:07.740Z,0.60
2019-02-12T11:33:50.233Z,1.33
2019-02-12T11:36:32.750Z,0.53
2019-02-12T11:39:15.605Z,0.40
2019-02-12T11:41:58.153Z,0.50
2019-02-12T11:44:40.797Z,0.60
2019-02-12T11:47:23.370Z,0.40
2019-02-12T11:50:06.157Z,0.57
2019-02-12T11:52:48.677Z,0.60
2019-02-12T11:55:31.601Z,0.50
2019-02-12T11:58:13.685Z,0.50
2019-02-12T12:01:01.460Z,0.50
2019-02-12T12:03:43.992Z,0.80
2019-02-12T12:06:26.524Z,0.60
2019-02-12T12:09:09.263Z,0.53
2019-02-12T12:11:49.917Z,0.43
2019-02-12T12:14:39.264Z,0.50
2019-02-12T12:17:20.952Z,0.57
2019-02-12T12:20:02.650Z,0.80
2019-02-12T12:22:45.289Z,0.60
2019-02-12T12:25:27.761Z,0.67
2019-02-12T12:28:09.736Z,0.50
2019-02-12T12:30:52.111Z,0.50
2019-02-12T12:33:34.137Z,0.83
2019-02-12T12:36:16.532Z,0.70
2019-02-12T12:38:58.418Z,0.50
2019-02-12T12:41:42.757Z,0.50
2019-02-12T12:44:25.688Z,0.50
2019-02-12T12:47:07.620Z,0.50
2019-02-12T12:49:50.380Z,0.50
2019-02-12T12:52:30.805Z,0.60
2019-02-12T12:55:21.453Z,0.53
2019-02-12T12:58:03.975Z,0.80
2019-02-12T13:00:45.749Z,0.70
2019-02-12T13:03:27.388Z,0.70
2019-02-12T13:06:09.469Z,0.50
2019-02-12T13:08:51.818Z,0.47
2019-02-12T13:11:34.053Z,0.60
2019-02-12T13:14:15.973Z,0.70
2019-02-12T13:16:58.721Z,0.60
2019-02-12T13:19:41.244Z,0.60
2019-02-12T13:22:21.688Z,0.50
2019-02-12T13:28:18.081Z,0.60
2019-02-12T13:30:58.736Z,0.60
2019-02-12T13:36:49.304Z,0.40
2019-02-12T13:39:31.480Z,0.60
2019-02-12T13:42:14.061Z,0.60
2019-02-12T13:44:57.398Z,0.50
2019-02-12T13:47:40.297Z,0.57
2019-02-12T13:50:22.800Z,0.60
2019-02-12T13:53:05.733Z,0.67
2019-02-12T13:55:48.464Z,0.60
2019-02-12T13:58:30.302Z,0.50
2019-02-12T14:01:12.232Z,0.47
2019-02-12T14:03:54.513Z,0.60
2019-02-12T14:06:36.288Z,0.70
2019-02-12T14:09:18.896Z,0.70
2019-02-12T14:12:01.649Z,0.50
2019-02-12T14:14:43.500Z,0.40
2019-02-12T14:17:26.137Z,0.50
2019-02-12T14:20:08.443Z,0.40
2019-02-12T14:22:51.161Z,0.80
2019-02-12T14:25:31.622Z,0.70
2019-02-12T14:28:21.214Z,0.90
2019-02-12T14:31:03.218Z,0.60
2019-02-12T14:33:45.684Z,0.50
2019-02-12T14:36:28.301Z,0.60
2019-02-12T14:39:10.781Z,0.50
2019-02-12T14:41:52.534Z,0.50
2019-02-12T14:44:35.161Z,0.73
2019-02-12T14:47:17.472Z,0.77
2019-02-12T14:49:59.313Z,0.40
2019-02-12T14:52:41.501Z,0.93
2019-02-12T14:55:24.158Z,0.60
2019-02-12T14:58:06.505Z,0.60
2019-02-12T15:00:48.981Z,0.40
2019-02-12T15:03:30.880Z,0.40
2019-02-12T15:06:13.382Z,0.77
2019-02-12T15:08:56.040Z,0.60
2019-02-12T15:11:36.695Z,0.60
2019-02-12T15:17:28.273Z,0.60
2019-02-12T15:20:10.688Z,0.70
2019-02-12T15:22:53.232Z,0.70
2019-02-12T15:25:41.830Z,0.50
2019-02-12T15:28:20.849Z,0.60
2019-02-12T15:31:03.946Z,0.83
2019-02-12T15:33:46.870Z,0.83
2019-02-12T15:36:29.013Z,0.70
2019-02-12T15:39:11.796Z,0.60
2019-02-12T15:41:54.349Z,0.50
2019-02-12T15:44:36.813Z,0.70
2019-02-12T15:47:19.397Z,0.90
2019-02-12T15:50:00.267Z,0.70
2019-02-12T15:52:49.612Z,0.70
2019-02-12T15:55:31.892Z,0.60
2019-02-12T15:58:14.674Z,1.00
2019-02-12T16:00:57.382Z,0.90
2019-02-12T16:03:39.421Z,0.60
2019-02-12T16:06:22.001Z,0.60
2019-02-12T16:09:05.252Z,0.60
2019-02-12T16:11:48.421Z,0.70
2019-02-12T16:14:30.022Z,2.80
2019-02-12T16:17:14.446Z,0.80
2019-02-12T16:19:56.837Z,0.90
2019-02-12T16:22:39.616Z,1.37
2019-02-12T16:25:22.672Z,1.97
2019-02-12T16:28:04.412Z,3.50
2019-02-12T16:30:46.118Z,1.70
2019-02-12T16:33:28.669Z,1.93
2019-02-12T16:36:10.494Z,3.30
2019-02-12T16:38:51.459Z,2.40
2019-02-12T16:41:40.854Z,2.87
2019-02-12T16:44:23.456Z,2.80
2019-02-12T16:47:03.926Z,2.63
2019-02-12T16:49:53.372Z,2.98
2019-02-12T16:52:35.516Z,3.52
2019-02-12T16:55:17.596Z,2.67
2019-02-12T16:58:00.037Z,2.22
2019-02-12T17:00:42.956Z,3.17
2019-02-12T17:03:25.452Z,3.83
2019-02-12T17:06:07.646Z,2.95
2019-02-12T17:08:50.204Z,3.33
2019-02-12T17:11:32.217Z,1.92
2019-02-12T17:14:15.649Z,1.40
2019-02-12T17:16:58.193Z,2.05
2019-02-12T17:19:41.653Z,1.22
2019-02-12T17:22:24.262Z,1.40
2019-02-12T17:25:06.177Z,1.27
2019-02-12T17:27:48.477Z,2.00
2019-02-12T17:30:30.968Z,0.90
2019-02-12T17:33:12.840Z,1.70
2019-02-12T17:35:55.592Z,1.67
2019-02-12T17:38:37.609Z,1.32
2019-02-12T17:41:18.069Z,1.75
2019-02-12T17:44:07.712Z,1.90
2019-02-12T17:46:50.622Z,1.00
2019-02-12T17:49:32.561Z,1.55
2019-02-12T17:52:14.772Z,1.05
2019-02-12T17:54:55.240Z,1.10
2019-02-12T17:57:44.850Z,1.20
2019-02-12T18:00:29.162Z,0.80
2019-02-12T18:03:13.488Z,1.37
2019-02-12T18:05:56.410Z,1.00
2019-02-12T18:08:39.052Z,1.80
2019-02-12T18:11:21.433Z,1.50
2019-02-12T18:14:03.995Z,1.00
2019-02-12T18:16:46.364Z,1.75
2019-02-12T18:19:28.541Z,1.60
2019-02-12T18:22:11.064Z,1.35
2019-02-12T18:24:52.781Z,2.05
2019-02-12T18:27:35.118Z,1.82
2019-02-12T18:30:17.133Z,1.75
2019-02-12T18:32:59.624Z,0.98
2019-02-12T18:35:42.961Z,2.10
2019-02-12T18:38:25.429Z,2.22
2019-02-12T18:41:07.279Z,2.42
2019-02-12T18:43:50.046Z,2.10
2019-02-12T18:46:32.444Z,1.57
2019-02-12T18:49:15.037Z,1.35
2019-02-12T18:51:57.559Z,1.77
2019-02-12T18:54:40.429Z,1.95
2019-02-12T18:57:22.757Z,2.20
2019-02-12T19:00:05.029Z,2.08
2019-02-12T19:02:47.032Z,2.10
2019-02-12T19:05:29.559Z,2.00
2019-02-12T19:08:11.822Z,1.82
2019-02-12T19:10:53.608Z,3.25
2019-02-12T19:13:35.288Z,3.62
2019-02-12T19:16:17.064Z,3.37
2019-02-12T19:18:59.569Z,2.27
2019-02-12T19:21:41.887Z,2.50
2019-02-12T19:24:23.689Z,2.85
2019-02-12T19:27:05.645Z,2.37
2019-02-12T19:29:48.005Z,2.08
2019-02-12T19:32:30.373Z,2.15
2019-02-12T19:35:13.017Z,1.90
2019-02-12T19:37:55.868Z,1.77
2019-02-12T19:40:38.693Z,2.05
2019-02-12T19:43:21.234Z,1.90
2019-02-12T19:46:03.599Z,1.60
2019-02-12T19:48:45.900Z,1.75
2019-02-12T19:51:29.813Z,2.15
2019-02-12T19:54:11.881Z,1.12
2019-02-12T19:56:58.324Z,2.30
2019-02-12T19:59:37.792Z,2.25
2019-02-12T20:02:20.588Z,3.10
2019-02-12T20:05:03.545Z,2.50
2019-02-12T20:07:45.665Z,2.62
2019-02-12T20:10:28.138Z,3.55
2019-02-12T20:13:11.164Z,2.35
2019-02-12T20:15:53.368Z,2.40
2019-02-12T20:18:36.613Z,3.90
2019-02-12T20:21:18.893Z,3.42
2019-02-12T20:24:01.125Z,2.92
2019-02-12T20:26:42.858Z,2.92
2019-02-12T20:29:24.788Z,2.47
2019-02-12T20:32:05.481Z,2.00
2019-02-12T20:34:54.904Z,1.87
2019-02-12T20:37:35.388Z,2.98
2019-02-12T20:40:25.306Z,2.35
2019-02-12T20:43:07.012Z,3.05
2019-02-12T20:45:49.488Z,2.22
2019-02-12T20:48:31.916Z,2.30
2019-02-12T20:51:13.774Z,2.55
2019-02-12T20:53:56.288Z,1.30
2019-02-12T20:56:38.808Z,2.00
2019-02-12T20:59:20.702Z,1.52
2019-02-12T21:02:04.207Z,2.00
2019-02-12T21:04:46.120Z,2.00
2019-02-12T21:07:28.351Z,2.67
2019-02-12T21:10:10.240Z,4.50
2019-02-12T21:12:52.778Z,4.30
2019-02-12T21:15:34.681Z,2.20
2019-02-12T21:18:16.476Z,3.27
2019-02-12T21:21:00.520Z,2.70
2019-02-12T21:23:43.437Z,2.60
2019-02-12T21:26:25.554Z,3.40
2019-02-12T21:29:07.822Z,4.12
2019-02-12T21:31:51.190Z,3.05
2019-02-12T21:34:33.758Z,3.00
2019-02-12T21:37:16.120Z,3.67
2019-02-12T21:39:56.899Z,3.35
2019-02-12T21:46:06.648Z,1.90
2019-02-12T21:48:47.281Z,1.83
2019-02-12T21:51:37.612Z,3.40
2019-02-12T21:54:18.260Z,2.20
2019-02-12T21:57:07.881Z,1.62
2019-02-12T22:00:09.597Z,1.90
2019-02-12T22:02:52.151Z,1.40
2019-02-12T22:05:34.399Z,3.20
2019-02-12T22:08:16.204Z,1.85
2019-02-12T22:10:58.050Z,1.97
2019-02-12T22:13:40.768Z,1.90
2019-02-12T22:16:23.196Z,2.00
2019-02-12T22:19:06.353Z,1.90
2019-02-12T22:21:48.924Z,1.75
2019-02-12T22:24:31.208Z,2.60
2019-02-12T22:27:13.494Z,1.92
2019-02-12T22:29:55.343Z,1.70
2019-02-12T22:32:38.700Z,1.95
2019-02-12T22:35:21.220Z,1.47
2019-02-12T22:38:01.629Z,2.23
2019-02-12T22:40:51.325Z,3.12
2019-02-12T22:43:33.041Z,2.20
2019-02-12T22:46:15.613Z,2.60
2019-02-12T22:48:58.201Z,2.47
2019-02-12T22:51:43.032Z,2.90
2019-02-12T22:54:25.477Z,3.73
2019-02-12T22:57:07.258Z,3.67
2019-02-12T22:59:50.106Z,3.50
2019-02-12T23:02:32.172Z,3.50
2019-02-12T23:05:14.134Z,3.05
2019-02-12T23:07:56.958Z,2.73
2019-02-12T23:10:39.060Z,2.00
2019-02-12T23:13:21.128Z,2.50
2019-02-12T23:16:03.731Z,1.97
2019-02-12T23:18:45.572Z,2.13
2019-02-12T23:21:28.229Z,1.75
2019-02-12T23:24:10.205Z,2.58
2019-02-12T23:26:52.904Z,2.47
2019-02-12T23:29:34.545Z,2.20
2019-02-12T23:32:16.325Z,1.80
2019-02-12T23:34:57.344Z,3.13
2019-02-12T23:37:47.072Z,1.75
2019-02-12T23:40:29.157Z,1.40
2019-02-12T23:43:11.537Z,2.20
2019-02-12T23:45:54.240Z,3.00
2019-02-12T23:48:36.077Z,1.60
2019-02-12T23:51:18.873Z,4.00
2019-02-12T23:54:01.596Z,2.12
2019-02-12T23:56:42.006Z,2.77
2019-02-12T23:59:31.357Z,2.00
